Time;durP1;ratioP1;P1;durP2;ratioP2;P2;SDS_P1;SDS_P2;PMS_P1;PMS_P2;Temp;Humidity;BMP_temperature;BMP_pressure;BME280_temperature;BME280_humidity;BME280_pressure;Samples;Min_cycle;Max_cycle;Signal;HPM_P1;HPM_P2
2021/10/22 00:00:56;;;;;;;4.32;2.10;;;8.30;99.90;;;;;;5071979;28;20694;-67
2021/10/22 00:03:23;;;;;;;1.67;1.58;;;8.20;99.90;;;;;;5071544;28;20227;-66
2021/10/22 00:05:49;;;;;;;1.70;1.60;;;8.20;99.90;;;;;;5071276;28;20252;-66
2021/10/22 00:08:16;;;;;;;1.88;1.65;;;8.10;99.90;;;;;;5072133;28;20235;-66
2021/10/22 00:10:43;;;;;;;2.00;1.80;;;8.10;99.90;;;;;;5072232;28;20227;-66
2021/10/22 00:13:11;;;;;;;2.10;1.80;;;8.00;99.90;;;;;;5071911;28;20713;-66
2021/10/22 00:15:39;;;;;;;2.20;2.00;;;8.00;99.90;;;;;;5072225;28;20228;-66
2021/10/22 00:18:05;;;;;;;3.00;1.77;;;8.00;99.90;;;;;;5071518;28;20207;-67
2021/10/22 00:20:32;;;;;;;2.03;1.77;;;8.00;99.90;;;;;;5071510;28;20201;-65
2021/10/22 00:22:59;;;;;;;2.38;2.00;;;7.90;99.90;;;;;;5072054;28;20204;-66
2021/10/22 00:25:25;;;;;;;2.80;1.90;;;7.80;99.90;;;;;;5072073;28;20220;-69
2021/10/22 00:27:52;;;;;;;2.70;2.20;;;7.80;99.90;;;;;;5147153;22;20734;-71
2021/10/22 00:30:19;;;;;;;4.18;2.42;;;7.80;99.90;;;;;;5090919;28;20560;-71
2021/10/22 00:32:47;;;;;;;2.28;1.80;;;7.70;99.90;;;;;;5088669;28;20203;-71
2021/10/22 00:35:15;;;;;;;2.50;1.60;;;7.70;99.90;;;;;;5092443;28;20633;-71
2021/10/22 00:37:41;;;;;;;2.25;1.95;;;7.70;99.90;;;;;;5092037;28;20623;-72
2021/10/22 00:40:10;;;;;;;1.60;1.50;;;7.60;99.90;;;;;;5092544;28;20199;-71
2021/10/22 00:42:37;;;;;;;2.33;2.13;;;7.60;99.90;;;;;;5092410;28;20207;-71
2021/10/22 00:45:05;;;;;;;3.03;1.92;;;7.60;99.90;;;;;;5091895;28;20212;-71
2021/10/22 00:47:32;;;;;;;3.05;1.85;;;7.60;99.90;;;;;;5091711;28;20203;-71
2021/10/22 00:50:00;;;;;;;2.40;1.80;;;7.60;99.90;;;;;;5092607;28;20214;-71
2021/10/22 00:52:29;;;;;;;1.83;1.60;;;7.60;99.90;;;;;;5092470;28;20634;-72
2021/10/22 00:54:57;;;;;;;2.30;2.10;;;7.70;99.90;;;;;;5091482;28;20227;-72
2021/10/22 00:57:24;;;;;;;5.15;2.50;;;7.70;99.90;;;;;;5091523;28;20204;-71
2021/10/22 00:59:51;;;;;;;2.15;1.95;;;7.70;99.90;;;;;;5092071;28;20208;-71
2021/10/22 01:02:17;;;;;;;3.00;1.65;;;7.70;99.90;;;;;;5091924;28;20207;-72
2021/10/22 01:04:44;;;;;;;3.17;1.63;;;7.70;99.90;;;;;;5091427;28;20199;-71
2021/10/22 01:07:15;;;;;;;2.78;2.00;;;7.70;99.90;;;;;;5091377;28;20242;-71
2021/10/22 01:09:43;;;;;;;2.58;1.80;;;7.70;99.90;;;;;;5091402;28;20229;-72
2021/10/22 01:12:11;;;;;;;2.33;1.88;;;7.70;99.90;;;;;;5092309;28;20574;-71
2021/10/22 01:14:38;;;;;;;1.65;1.55;;;7.70;99.90;;;;;;5090966;28;20204;-71
2021/10/22 01:17:05;;;;;;;2.50;1.80;;;7.70;99.90;;;;;;5090872;28;20206;-71
2021/10/22 01:19:32;;;;;;;4.03;1.70;;;7.70;99.90;;;;;;5091364;28;20211;-71
2021/10/22 01:22:00;;;;;;;1.80;1.70;;;7.80;99.90;;;;;;5091598;28;20234;-71
2021/10/22 01:24:26;;;;;;;3.25;1.65;;;7.70;99.90;;;;;;5091342;28;20210;-71
2021/10/22 01:26:53;;;;;;;2.70;1.50;;;7.70;99.90;;;;;;5090906;28;20227;-72
2021/10/22 01:29:20;;;;;;;3.70;2.00;;;7.70;99.90;;;;;;5091507;28;20211;-71
2021/10/22 01:31:47;;;;;;;1.73;1.50;;;7.70;99.90;;;;;;5091332;28;20210;-71
2021/10/22 01:34:14;;;;;;;2.40;1.83;;;7.70;99.90;;;;;;5091437;28;20222;-71
2021/10/22 01:36:40;;;;;;;4.40;1.92;;;7.70;99.90;;;;;;5090407;28;20571;-72
2021/10/22 01:39:08;;;;;;;2.92;1.50;;;7.70;99.90;;;;;;5091521;28;20203;-71
2021/10/22 01:41:35;;;;;;;4.40;2.13;;;7.70;99.90;;;;;;5091054;28;20569;-71
2021/10/22 01:44:06;;;;;;;2.22;1.80;;;7.70;99.90;;;;;;5091324;28;20283;-71
2021/10/22 01:46:33;;;;;;;2.35;1.90;;;7.70;99.90;;;;;;5090453;28;20220;-71
2021/10/22 01:48:59;;;;;;;2.95;1.60;;;7.70;99.90;;;;;;5091199;28;20582;-71
2021/10/22 01:51:26;;;;;;;3.88;2.20;;;7.70;99.90;;;;;;5091027;28;20298;-71
2021/10/22 01:53:54;;;;;;;6.13;2.03;;;7.70;99.90;;;;;;5091019;28;20196;-71
2021/10/22 01:56:22;;;;;;;2.33;1.50;;;7.70;99.90;;;;;;5090379;28;20228;-71
2021/10/22 01:58:48;;;;;;;2.60;2.03;;;7.70;99.90;;;;;;5091010;28;20207;-71
2021/10/22 02:01:15;;;;;;;3.10;1.92;;;7.70;99.90;;;;;;5091071;28;20200;-71
2021/10/22 02:03:42;;;;;;;2.30;1.70;;;7.70;99.90;;;;;;5090592;28;20208;-71
2021/10/22 02:06:09;;;;;;;2.10;1.63;;;7.70;99.90;;;;;;5089599;28;20227;-71
2021/10/22 02:08:35;;;;;;;5.43;2.03;;;7.70;99.90;;;;;;5090612;28;20211;-71
2021/10/22 02:11:02;;;;;;;4.95;2.05;;;7.70;99.90;;;;;;5091011;28;20203;-71
2021/10/22 02:13:30;;;;;;;3.92;2.40;;;7.70;99.90;;;;;;5090746;28;20210;-71
2021/10/22 02:15:57;;;;;;;4.10;2.17;;;7.70;99.90;;;;;;5090087;28;20242;-71
2021/10/22 02:18:24;;;;;;;2.67;2.15;;;7.70;99.90;;;;;;5090873;28;20550;-71
2021/10/22 02:20:51;;;;;;;3.60;2.15;;;7.60;99.90;;;;;;5090808;28;20195;-72
2021/10/22 02:23:18;;;;;;;3.40;1.88;;;7.60;99.90;;;;;;5090811;28;20212;-71
2021/10/22 02:25:45;;;;;;;3.03;1.90;;;7.60;99.90;;;;;;5090187;28;20372;-71
2021/10/22 02:28:13;;;;;;;3.47;1.90;;;7.60;99.90;;;;;;5090844;28;20712;-71
2021/10/22 02:30:41;;;;;;;4.38;2.30;;;7.50;99.90;;;;;;5090329;28;20277;-71
2021/10/22 02:33:08;;;;;;;5.90;3.08;;;7.50;99.90;;;;;;5090675;28;20207;-71
2021/10/22 02:35:35;;;;;;;2.08;1.40;;;7.50;99.90;;;;;;5090336;28;20725;-71
2021/10/22 02:38:02;;;;;;;2.60;1.67;;;7.50;99.90;;;;;;5090167;28;20199;-71
2021/10/22 02:40:29;;;;;;;3.42;1.40;;;7.40;99.90;;;;;;5090619;28;20200;-72
2021/10/22 02:42:56;;;;;;;5.32;1.88;;;7.40;99.90;;;;;;5090880;28;20207;-72
2021/10/22 02:45:22;;;;;;;1.33;1.23;;;7.30;99.90;;;;;;5090423;28;20215;-71
2021/10/22 02:47:50;;;;;;;2.63;1.70;;;7.30;99.90;;;;;;5089823;28;20674;-71
2021/10/22 02:50:18;;;;;;;3.75;1.40;;;7.20;99.90;;;;;;5090521;28;20206;-71
2021/10/22 02:52:45;;;;;;;3.95;1.85;;;7.10;99.90;;;;;;5090245;28;20943;-71
2021/10/22 02:55:12;;;;;;;1.60;1.20;;;7.00;99.90;;;;;;5090331;28;20249;-71
2021/10/22 02:57:39;;;;;;;3.55;1.75;;;6.90;99.90;;;;;;5089619;28;20285;-72
2021/10/22 03:00:07;;;;;;;2.42;1.90;;;6.90;99.90;;;;;;5090374;28;20204;-71
2021/10/22 03:02:34;;;;;;;2.15;1.63;;;6.80;99.90;;;;;;5090131;28;20667;-71
2021/10/22 03:05:02;;;;;;;2.45;1.60;;;6.80;99.90;;;;;;5090095;28;20223;-71
2021/10/22 03:07:28;;;;;;;1.92;1.60;;;6.70;99.90;;;;;;5089750;28;20207;-71
2021/10/22 03:09:55;;;;;;;2.50;2.00;;;6.70;99.90;;;;;;5090137;28;20678;-71
2021/10/22 03:12:22;;;;;;;3.78;2.00;;;6.70;99.90;;;;;;5090226;28;20204;-71
2021/10/22 03:14:49;;;;;;;4.03;1.92;;;6.60;99.90;;;;;;5089709;28;20211;-71
2021/10/22 03:17:15;;;;;;;7.13;1.88;;;6.40;99.90;;;;;;5091277;28;20703;-71
2021/10/22 03:19:42;;;;;;;3.75;2.13;;;6.30;99.90;;;;;;5093782;28;20211;-71
2021/10/22 03:22:10;;;;;;;4.57;2.45;;;6.20;99.90;;;;;;5094031;28;20207;-71
2021/10/22 03:24:37;;;;;;;4.63;2.88;;;6.20;99.90;;;;;;5093410;28;20693;-71
2021/10/22 03:27:09;;;;;;;3.42;2.35;;;6.10;99.90;;;;;;5093513;28;20204;-71
2021/10/22 03:29:36;;;;;;;3.90;2.60;;;6.10;99.90;;;;;;5091515;28;20757;-71
2021/10/22 03:32:03;;;;;;;4.35;2.58;;;6.00;99.90;;;;;;5086469;28;20697;-71
2021/10/22 03:34:30;;;;;;;4.30;2.60;;;5.90;99.90;;;;;;5074860;28;20582;-71
2021/10/22 03:36:57;;;;;;;3.13;2.50;;;5.80;99.90;;;;;;5080881;28;20219;-72
2021/10/22 03:39:26;;;;;;;2.90;2.10;;;5.70;99.90;;;;;;5084501;28;20199;-73
2021/10/22 03:41:52;;;;;;;5.13;2.65;;;5.70;99.90;;;;;;5083067;28;20246;-73
2021/10/22 03:44:19;;;;;;;4.97;2.63;;;5.80;99.90;;;;;;5082985;28;20192;-72
2021/10/22 03:46:46;;;;;;;8.18;2.55;;;5.70;99.90;;;;;;5082008;28;20672;-72
2021/10/22 03:49:13;;;;;;;2.95;2.10;;;5.70;99.90;;;;;;5083020;28;20277;-72
2021/10/22 03:51:40;;;;;;;12.95;3.08;;;5.80;99.90;;;;;;5083880;28;20686;-72
2021/10/22 03:54:07;;;;;;;4.30;2.92;;;5.70;99.90;;;;;;5082450;28;20196;-71
2021/10/22 03:56:35;;;;;;;5.88;2.17;;;5.70;99.90;;;;;;5083403;28;20691;-69
2021/10/22 03:59:01;;;;;;;4.50;2.25;;;5.60;99.90;;;;;;5087320;28;20210;-72
2021/10/22 04:01:28;;;;;;;5.80;2.15;;;5.50;99.90;;;;;;5074926;28;20212;-72
2021/10/22 04:03:55;;;;;;;7.78;2.88;;;5.50;99.90;;;;;;5075832;28;20192;-72
2021/10/22 04:06:22;;;;;;;5.50;2.03;;;5.40;99.90;;;;;;5070642;28;20224;-72
2021/10/22 04:08:48;;;;;;;2.95;2.20;;;5.40;99.90;;;;;;5076905;28;20196;-72
2021/10/22 04:11:15;;;;;;;3.75;2.50;;;5.30;99.90;;;;;;5081982;28;20200;-71
2021/10/22 04:13:43;;;;;;;5.32;2.63;;;5.30;99.90;;;;;;5078760;28;20204;-73
2021/10/22 04:16:10;;;;;;;5.13;2.38;;;5.30;99.90;;;;;;5072502;28;20219;-72
2021/10/22 04:18:37;;;;;;;4.28;2.20;;;5.30;99.90;;;;;;5081557;28;20201;-72
2021/10/22 04:21:03;;;;;;;4.20;2.20;;;5.20;99.90;;;;;;5081122;28;20222;-73
2021/10/22 04:23:31;;;;;;;5.53;2.38;;;5.20;99.90;;;;;;5082620;28;20196;-73
2021/10/22 04:25:57;;;;;;;3.33;1.60;;;5.10;99.90;;;;;;5081300;28;20212;-72
2021/10/22 04:28:24;;;;;;;5.95;2.40;;;5.00;99.90;;;;;;5080102;28;20448;-73
2021/10/22 04:30:52;;;;;;;4.85;2.47;;;5.00;99.90;;;;;;5072853;28;20549;-73
2021/10/22 04:33:19;;;;;;;7.55;2.63;;;5.00;99.90;;;;;;5053039;28;20228;-73
2021/10/22 04:35:46;;;;;;;6.45;2.45;;;5.10;99.90;;;;;;5051718;28;20224;-73
2021/10/22 04:41:04;;;;;;;6.15;2.70;;;5.30;99.90;;;;;;5072208;28;20214;-73
2021/10/22 04:43:31;;;;;;;5.80;2.50;;;5.20;99.90;;;;;;5071328;28;20682;-73
2021/10/22 04:45:59;;;;;;;3.50;2.35;;;5.10;99.90;;;;;;5071512;28;20216;-73
2021/10/22 04:48:26;;;;;;;4.05;2.40;;;4.90;99.90;;;;;;5071758;28;20204;-72
2021/10/22 04:50:53;;;;;;;4.30;2.00;;;4.90;99.90;;;;;;5071554;28;20273;-73
2021/10/22 04:53:22;;;;;;;2.47;1.90;;;4.80;99.90;;;;;;5071496;28;20204;-73
2021/10/22 04:55:49;;;;;;;5.47;1.98;;;4.80;99.90;;;;;;5070858;28;20258;-72
2021/10/22 04:58:16;;;;;;;3.25;1.90;;;4.70;99.90;;;;;;5071155;28;20204;-73
2021/10/22 05:00:43;;;;;;;6.15;3.35;;;4.70;99.90;;;;;;5071415;28;20647;-73
2021/10/22 05:03:11;;;;;;;6.80;2.95;;;4.60;99.90;;;;;;5071492;28;20211;-72
2021/10/22 05:05:38;;;;;;;4.05;2.25;;;4.60;99.90;;;;;;5071559;28;20247;-73
2021/10/22 05:08:05;;;;;;;4.78;2.40;;;4.60;99.90;;;;;;5080566;28;20199;-72
2021/10/22 05:10:32;;;;;;;2.80;2.35;;;4.60;99.90;;;;;;5091572;28;20211;-73
2021/10/22 05:12:59;;;;;;;4.30;2.85;;;4.60;99.90;;;;;;5091639;28;20575;-73
2021/10/22 05:15:26;;;;;;;3.50;2.65;;;4.50;99.90;;;;;;5071341;28;20234;-73
2021/10/22 05:17:53;;;;;;;6.60;2.33;;;4.50;99.90;;;;;;5069814;28;20228;-73
2021/10/22 05:20:21;;;;;;;3.72;2.88;;;4.50;99.90;;;;;;5071068;28;20596;-73
2021/10/22 05:22:47;;;;;;;6.43;2.10;;;4.50;99.90;;;;;;5071291;28;20226;-72
2021/10/22 05:25:17;;;;;;;4.80;2.60;;;4.50;99.90;;;;;;5070663;28;20243;-73
2021/10/22 05:27:44;;;;;;;3.75;2.30;;;4.50;99.90;;;;;;5070743;28;20254;-73
2021/10/22 05:30:12;;;;;;;5.05;3.38;;;4.50;99.90;;;;;;5070721;28;20208;-72
2021/10/22 05:32:38;;;;;;;4.65;2.30;;;4.50;99.90;;;;;;5071084;28;20660;-72
2021/10/22 05:35:06;;;;;;;6.80;2.60;;;4.60;99.90;;;;;;5070781;28;20232;-72
2021/10/22 05:37:34;;;;;;;4.35;2.60;;;4.60;99.90;;;;;;5070133;28;20224;-73
2021/10/22 05:40:01;;;;;;;4.35;2.22;;;4.60;99.90;;;;;;5071130;28;20207;-72
2021/10/22 05:42:28;;;;;;;8.70;2.65;;;4.60;99.90;;;;;;5070401;28;20589;-73
2021/10/22 05:44:54;;;;;;;4.10;2.80;;;4.60;99.90;;;;;;5070766;28;20224;-73
2021/10/22 05:47:21;;;;;;;2.85;2.10;;;4.60;99.90;;;;;;5070492;28;20212;-73
2021/10/22 05:49:48;;;;;;;5.40;3.75;;;4.60;99.90;;;;;;5090905;28;20210;-73
2021/10/22 05:52:16;;;;;;;8.25;2.85;;;4.60;99.90;;;;;;5090736;28;20200;-73
2021/10/22 05:54:44;;;;;;;6.32;2.50;;;4.60;99.90;;;;;;5090530;28;20199;-72
2021/10/22 05:57:11;;;;;;;4.63;2.42;;;4.60;99.90;;;;;;5090656;28;20717;-73
2021/10/22 05:59:37;;;;;;;3.25;2.45;;;4.60;99.90;;;;;;5090606;28;20674;-73
2021/10/22 06:02:04;;;;;;;5.28;2.38;;;4.60;99.90;;;;;;5090929;28;20214;-72
2021/10/22 06:04:32;;;;;;;4.43;2.35;;;4.60;99.90;;;;;;5089967;28;20200;-72
2021/10/22 06:06:58;;;;;;;6.40;2.20;;;4.70;99.90;;;;;;5090018;28;20192;-73
2021/10/22 06:09:25;;;;;;;5.65;3.50;;;4.70;99.90;;;;;;5090157;28;20196;-73
2021/10/22 06:11:53;;;;;;;2.63;2.10;;;4.70;99.90;;;;;;5090555;28;20204;-73
2021/10/22 06:14:20;;;;;;;5.03;2.38;;;4.80;99.90;;;;;;5081817;28;20193;-72
2021/10/22 06:16:47;;;;;;;11.18;3.17;;;4.90;99.90;;;;;;5069600;28;20224;-72
2021/10/22 06:19:16;;;;;;;5.70;2.75;;;4.90;99.90;;;;;;5070383;28;20211;-73
2021/10/22 06:21:55;;;;;;;4.40;2.65;;;4.90;99.90;;;;;;5070193;28;20196;-73
2021/10/22 06:24:21;;;;;;;10.57;2.80;;;5.00;99.90;;;;;;5069717;28;20228;-73
2021/10/22 06:26:49;;;;;;;3.22;2.85;;;5.10;99.90;;;;;;5069519;28;20235;-73
2021/10/22 06:29:17;;;;;;;8.60;2.47;;;5.10;99.90;;;;;;5069837;28;20209;-73
2021/10/22 06:31:44;;;;;;;12.98;3.92;;;5.10;99.90;;;;;;5070355;28;20222;-73
2021/10/22 06:34:11;;;;;;;9.32;2.63;;;5.10;99.90;;;;;;5072146;28;20196;-73
2021/10/22 06:36:38;;;;;;;5.78;2.13;;;5.20;99.90;;;;;;5069452;28;20223;-73
2021/10/22 06:39:05;;;;;;;7.72;3.00;;;5.20;99.90;;;;;;5069943;28;20200;-73
2021/10/22 06:41:32;;;;;;;7.97;2.75;;;5.30;99.90;;;;;;5069849;28;20208;-73
2021/10/22 06:43:59;;;;;;;5.82;2.50;;;5.30;99.90;;;;;;5066899;28;20207;-72
2021/10/22 06:46:27;;;;;;;6.18;2.53;;;5.40;99.90;;;;;;5065984;28;20228;-73
2021/10/22 06:48:55;;;;;;;11.57;3.42;;;5.40;99.90;;;;;;5068360;28;20211;-73
2021/10/22 06:51:23;;;;;;;4.82;3.38;;;5.50;99.90;;;;;;5080609;28;20227;-73
2021/10/22 06:53:50;;;;;;;5.30;2.72;;;5.50;99.90;;;;;;5093980;28;20199;-73
2021/10/22 06:56:18;;;;;;;8.35;3.28;;;5.50;99.90;;;;;;5093013;28;20226;-73
2021/10/22 06:58:45;;;;;;;6.70;2.90;;;5.50;99.90;;;;;;5094109;28;20225;-73
2021/10/22 07:01:12;;;;;;;12.05;3.70;;;5.60;99.90;;;;;;5093613;28;20202;-73
2021/10/22 07:03:41;;;;;;;9.02;3.15;;;5.70;99.90;;;;;;5093931;28;20257;-73
2021/10/22 07:08:53;;;;;;;6.63;3.70;;;6.00;99.90;;;;;;5093840;28;20693;-72
2021/10/22 07:11:21;;;;;;;6.60;3.53;;;6.30;99.90;;;;;;5093539;28;20200;-73
2021/10/22 07:13:52;;;;;;;8.05;2.53;;;6.60;99.90;;;;;;5093802;28;20195;-73
2021/10/22 07:16:20;;;;;;;5.63;2.65;;;6.90;99.90;;;;;;5093602;28;20223;-73
2021/10/22 07:18:49;;;;;;;8.63;2.67;;;7.20;99.90;;;;;;5094859;28;20614;-72
2021/10/22 07:21:17;;;;;;;7.32;2.75;;;7.50;99.90;;;;;;5093507;28;20199;-73
2021/10/22 07:23:46;;;;;;;6.20;2.40;;;7.70;99.90;;;;;;5093410;28;20207;-73
2021/10/22 07:26:14;;;;;;;6.80;2.42;;;7.90;99.90;;;;;;5092793;28;20223;-73
2021/10/22 07:28:41;;;;;;;9.07;3.80;;;8.10;99.90;;;;;;5093457;28;20192;-73
2021/10/22 07:31:11;;;;;;;5.55;2.90;;;8.30;99.90;;;;;;5093287;28;20565;-73
2021/10/22 07:33:38;;;;;;;5.03;2.88;;;8.50;99.90;;;;;;5093529;28;20207;-73
2021/10/22 07:36:08;;;;;;;12.75;4.53;;;8.70;99.90;;;;;;5092515;28;20319;-73
2021/10/22 07:38:35;;;;;;;8.38;2.72;;;8.80;99.90;;;;;;5093136;28;20223;-73
2021/10/22 07:41:03;;;;;;;4.57;2.50;;;9.00;99.90;;;;;;5093318;28;20243;-74
2021/10/22 07:43:30;;;;;;;5.60;2.75;;;9.10;99.90;;;;;;5092771;28;20203;-73
2021/10/22 07:45:58;;;;;;;6.35;3.30;;;9.20;99.90;;;;;;5092537;28;20220;-73
2021/10/22 07:48:25;;;;;;;5.03;2.80;;;9.40;99.90;;;;;;5092958;28;20192;-73
2021/10/22 07:50:52;;;;;;;10.23;3.10;;;9.50;99.90;;;;;;5089436;28;20236;-73
2021/10/22 07:53:20;;;;;;;9.07;3.50;;;9.70;99.90;;;;;;5067014;28;20200;-72
2021/10/22 07:55:47;;;;;;;6.57;2.95;;;9.80;99.90;;;;;;5071062;28;20231;-73
2021/10/22 07:58:14;;;;;;;9.52;3.20;;;10.00;99.90;;;;;;5070799;28;20602;-73
2021/10/22 08:00:40;;;;;;;10.52;2.97;;;10.10;99.90;;;;;;5071422;28;20211;-73
2021/10/22 08:03:11;;;;;;;6.38;2.75;;;10.30;99.90;;;;;;5069965;28;20667;-71
2021/10/22 08:05:39;;;;;;;9.20;3.30;;;10.40;99.90;;;;;;5071133;28;20221;-71
2021/10/22 08:08:08;;;;;;;5.13;2.47;;;10.50;99.90;;;;;;5069937;28;20200;-71
2021/10/22 08:10:37;;;;;;;11.90;3.25;;;10.80;99.90;;;;;;5070999;28;20678;-71
2021/10/22 08:13:09;;;;;;;3.63;2.28;;;10.80;99.90;;;;;;5069334;28;20204;-73
2021/10/22 08:15:37;;;;;;;5.45;2.85;;;11.00;99.90;;;;;;5071093;28;20707;-73
2021/10/22 08:18:08;;;;;;;10.90;2.55;;;11.20;99.90;;;;;;5071337;28;20224;-72
2021/10/22 08:20:36;;;;;;;8.93;2.60;;;11.40;99.90;;;;;;5071865;28;20258;-72
2021/10/22 08:23:03;;;;;;;5.68;2.40;;;11.70;99.90;;;;;;5071636;28;20197;-73
2021/10/22 08:25:37;;;;;;;7.40;2.55;;;11.80;99.90;;;;;;5071115;28;20593;-73
2021/10/22 08:28:04;;;;;;;5.35;2.70;;;11.90;99.90;;;;;;5070946;28;20579;-73
2021/10/22 08:30:31;;;;;;;12.38;3.22;;;11.90;99.90;;;;;;5071890;28;20270;-73
2021/10/22 08:32:58;;;;;;;8.75;3.15;;;12.00;99.90;;;;;;5071354;28;20200;-73
2021/10/22 08:35:27;;;;;;;5.63;2.53;;;12.00;99.90;;;;;;5071159;28;20228;-74
2021/10/22 08:37:57;;;;;;;10.00;2.97;;;12.00;99.90;;;;;;5070986;28;20220;-72
2021/10/22 08:40:24;;;;;;;6.60;2.55;;;12.20;99.90;;;;;;5070978;28;20459;-73
2021/10/22 08:42:52;;;;;;;4.67;2.93;;;12.40;99.90;;;;;;5071579;28;20209;-73
2021/10/22 08:45:19;;;;;;;7.13;2.90;;;12.40;99.90;;;;;;5067355;28;20607;-72
2021/10/22 08:47:47;;;;;;;7.50;2.50;;;12.40;99.90;;;;;;5070786;28;20451;-73
2021/10/22 08:50:16;;;;;;;7.83;2.60;;;12.50;99.90;;;;;;5070465;28;21026;-73
2021/10/22 08:52:44;;;;;;;6.22;2.28;;;12.50;99.90;;;;;;5071017;28;20463;-73
2021/10/22 08:55:12;;;;;;;6.40;2.63;;;12.50;99.90;;;;;;5070296;28;20220;-73
2021/10/22 08:57:42;;;;;;;7.67;2.60;;;12.60;99.90;;;;;;5070120;28;20478;-73
2021/10/22 09:00:12;;;;;;;8.37;4.20;;;12.70;99.90;;;;;;5070867;28;20458;-72
2021/10/22 09:02:39;;;;;;;6.80;2.50;;;12.90;99.90;;;;;;5070331;28;20492;-73
2021/10/22 09:05:14;;;;;;;8.47;2.70;;;12.90;99.90;;;;;;5070439;28;20857;-73
2021/10/22 09:07:43;;;;;;;10.87;3.13;;;12.90;99.90;;;;;;5069981;28;20458;-73
2021/10/22 09:10:13;;;;;;;6.10;2.20;;;12.90;99.90;;;;;;5070009;28;20488;-73
2021/10/22 09:12:49;;;;;;;7.77;2.73;;;13.00;99.90;;;;;;5070618;28;20458;-73
2021/10/22 09:15:20;;;;;;;4.17;2.00;;;13.10;99.90;;;;;;5071338;28;20477;-73
2021/10/22 09:17:47;;;;;;;5.30;2.40;;;12.90;99.90;;;;;;5050086;28;20487;-72
2021/10/22 09:20:14;;;;;;;3.27;2.17;;;13.00;99.90;;;;;;5049632;28;20939;-74
2021/10/22 09:22:48;;;;;;;4.13;2.10;;;13.00;99.90;;;;;;5050449;28;20546;-73
2021/10/22 09:25:18;;;;;;;5.83;2.30;;;13.10;99.90;;;;;;5049438;28;20858;-73
2021/10/22 09:27:47;;;;;;;5.53;2.40;;;13.20;99.90;;;;;;5049075;28;20467;-73
2021/10/22 09:30:37;;;;;;;8.43;2.73;;;13.30;99.90;;;;;;5049749;28;20804;-73
2021/10/22 09:33:08;;;;;;;5.83;2.10;;;13.40;99.90;;;;;;5049765;28;20520;-73
2021/10/22 09:35:38;;;;;;;3.97;1.97;;;13.50;99.90;;;;;;5048917;28;20930;-73
2021/10/22 09:38:13;;;;;;;4.50;1.83;;;13.40;99.90;;;;;;5049326;28;20582;-73
2021/10/22 09:40:41;;;;;;;3.90;1.90;;;13.40;99.90;;;;;;5050242;28;20835;-73
2021/10/22 09:43:16;;;;;;;7.50;2.37;;;13.60;99.90;;;;;;5049895;28;20459;-73
2021/10/22 09:45:47;;;;;;;7.13;2.50;;;13.60;99.90;;;;;;5049013;28;20545;-73
2021/10/22 09:48:24;;;;;;;7.40;2.10;;;13.70;99.90;;;;;;5049657;28;20459;-73
2021/10/22 09:50:51;;;;;;;5.60;2.53;;;13.90;99.90;;;;;;5049380;28;20828;-73
2021/10/22 09:53:29;;;;;;;3.90;2.30;;;13.80;99.90;;;;;;5049111;28;20960;-73
2021/10/22 09:56:10;;;;;;;7.53;2.17;;;13.90;99.90;;;;;;5048586;28;20893;-73
2021/10/22 09:58:38;;;;;;;4.07;2.00;;;14.10;99.90;;;;;;5049862;28;20851;-73
2021/10/22 10:01:10;;;;;;;6.20;2.20;;;14.30;99.90;;;;;;5049634;28;20551;-73
2021/10/22 10:03:38;;;;;;;2.83;1.60;;;14.20;97.70;;;;;;5048854;28;20467;-73
2021/10/22 10:06:07;;;;;;;2.70;1.87;;;14.10;99.20;;;;;;5049268;28;20487;-73
2021/10/22 10:08:34;;;;;;;2.90;2.13;;;14.20;97.80;;;;;;5049117;28;20515;-73
2021/10/22 10:11:01;;;;;;;10.50;1.97;;;14.40;97.90;;;;;;5049813;28;20459;-73
2021/10/22 10:13:30;;;;;;;4.90;1.73;;;14.50;98.00;;;;;;5048645;28;20472;-73
2021/10/22 10:15:58;;;;;;;5.90;2.20;;;14.70;97.50;;;;;;5049064;28;20571;-73
2021/10/22 10:18:26;;;;;;;3.53;2.00;;;14.80;98.10;;;;;;5049254;28;20478;-73
2021/10/22 10:20:55;;;;;;;3.10;1.70;;;14.90;97.40;;;;;;5053538;28;20549;-73
2021/10/22 10:23:22;;;;;;;4.43;2.00;;;15.00;96.50;;;;;;5068748;28;20473;-73
2021/10/22 10:25:49;;;;;;;6.23;3.00;;;15.30;96.70;;;;;;5068028;28;21008;-73
2021/10/22 10:28:16;;;;;;;4.50;3.87;;;15.50;95.50;;;;;;5069217;28;20883;-73
2021/10/22 10:30:43;;;;;;;6.17;2.67;;;15.60;95.00;;;;;;5069307;28;20459;-73
2021/10/22 10:33:30;;;;;;;13.50;8.00;;;15.80;94.80;;;;;;5069490;28;20492;-74
2021/10/22 10:35:59;;;;;;;4.80;2.23;;;16.00;94.60;;;;;;5068955;28;20860;-73
2021/10/22 10:38:42;;;;;;;4.17;1.90;;;16.10;94.80;;;;;;5068526;28;20478;-73
2021/10/22 10:41:18;;;;;;;3.50;1.70;;;16.40;95.10;;;;;;5069334;28;20494;-74
2021/10/22 10:43:45;;;;;;;3.30;1.63;;;16.50;94.50;;;;;;5068771;28;20537;-73
2021/10/22 10:46:32;;;;;;;3.30;1.83;;;16.60;94.30;;;;;;5068463;28;20526;-73
2021/10/22 10:48:59;;;;;;;4.33;1.60;;;16.80;93.60;;;;;;5069176;28;20462;-72
2021/10/22 10:51:38;;;;;;;3.53;1.93;;;17.00;93.50;;;;;;5069083;28;20461;-73
2021/10/22 10:54:05;;;;;;;3.90;1.77;;;17.30;93.10;;;;;;5068697;28;20454;-73
2021/10/22 10:56:34;;;;;;;5.57;1.80;;;17.30;92.70;;;;;;5068526;28;20474;-73
2021/10/22 10:59:01;;;;;;;2.80;1.60;;;17.30;92.70;;;;;;5068773;28;20493;-73
2021/10/22 11:01:30;;;;;;;3.03;1.90;;;17.20;92.30;;;;;;5069136;28;20587;-73
2021/10/22 11:06:39;;;;;;;4.80;1.93;;;17.40;92.00;;;;;;5026707;28;20483;-68
2021/10/22 11:09:06;;;;;;;3.70;1.80;;;17.50;91.60;;;;;;5030055;28;20456;-68
2021/10/22 11:11:35;;;;;;;3.33;1.37;;;17.60;91.80;;;;;;5033076;28;20468;-68
2021/10/22 11:14:14;;;;;;;2.77;1.40;;;17.90;90.90;;;;;;5032464;28;21023;-68
2021/10/22 11:16:46;;;;;;;2.43;1.67;;;17.90;90.90;;;;;;5011811;28;20485;-70
2021/10/22 11:19:15;;;;;;;3.97;2.40;;;18.00;90.30;;;;;;5012267;28;20485;-70
2021/10/22 11:21:47;;;;;;;3.87;1.73;;;17.90;86.00;;;;;;5011893;28;20468;-70
2021/10/22 11:24:15;;;;;;;4.10;1.30;;;18.00;89.40;;;;;;5012175;28;20480;-70
2021/10/22 11:26:42;;;;;;;4.00;1.40;;;18.10;89.40;;;;;;5011284;28;20504;-70
2021/10/22 11:29:18;;;;;;;4.17;2.30;;;18.30;90.30;;;;;;5012336;28;20465;-70
2021/10/22 11:31:46;;;;;;;3.67;1.60;;;18.50;89.30;;;;;;5011865;28;20816;-70
2021/10/22 11:34:16;;;;;;;3.63;1.50;;;18.50;87.50;;;;;;5012056;28;20457;-70
2021/10/22 11:36:52;;;;;;;9.20;1.93;;;18.70;88.80;;;;;;5010958;28;20532;-70
2021/10/22 11:39:22;;;;;;;2.47;1.60;;;19.00;90.50;;;;;;5015065;28;20485;-70
2021/10/22 11:42:05;;;;;;;4.60;2.27;;;18.80;86.70;;;;;;5014986;28;20500;-70
2021/10/22 11:44:33;;;;;;;4.13;1.73;;;18.40;86.00;;;;;;5015512;28;20461;-69
2021/10/22 11:47:00;;;;;;;4.10;2.10;;;18.50;87.80;;;;;;5014562;28;20464;-69
2021/10/22 11:49:29;;;;;;;2.10;1.30;;;18.90;86.90;;;;;;5014909;28;20461;-69
2021/10/22 11:51:58;;;;;;;2.30;1.40;;;18.80;84.80;;;;;;5014395;28;20461;-69
2021/10/22 11:54:31;;;;;;;4.40;1.83;;;18.60;83.10;;;;;;5013931;28;20848;-69
2021/10/22 11:56:59;;;;;;;3.10;1.30;;;18.40;79.60;;;;;;5013534;28;20492;-69
2021/10/22 11:59:26;;;;;;;3.97;1.43;;;18.30;79.50;;;;;;5013339;28;20489;-69
2021/10/22 12:01:52;;;;;;;2.40;1.50;;;18.20;80.80;;;;;;5013082;28;20844;-69
2021/10/22 12:04:27;;;;;;;3.47;1.40;;;18.20;81.80;;;;;;5012916;28;20496;-69
2021/10/22 12:07:07;;;;;;;5.23;1.67;;;18.00;81.20;;;;;;5012553;28;20484;-69
2021/10/22 12:09:36;;;;;;;3.07;1.67;;;17.80;80.40;;;;;;5012797;28;20928;-69
2021/10/22 12:12:08;;;;;;;3.63;1.33;;;17.70;83.00;;;;;;5013099;28;20844;-69
2021/10/22 12:14:43;;;;;;;3.10;1.70;;;17.60;83.90;;;;;;5012730;28;20479;-69
2021/10/22 12:17:17;;;;;;;2.27;1.23;;;18.00;85.40;;;;;;5012591;28;20483;-69
2021/10/22 12:19:45;;;;;;;3.03;1.60;;;17.80;85.40;;;;;;5012651;28;20496;-69
2021/10/22 12:22:16;;;;;;;2.50;1.40;;;17.40;83.50;;;;;;5012938;28;20462;-69
2021/10/22 12:24:48;;;;;;;4.77;1.80;;;17.00;84.40;;;;;;5012598;28;20468;-69
2021/10/22 12:27:15;;;;;;;4.07;1.70;;;16.80;81.40;;;;;;5012600;28;20468;-69
2021/10/22 12:29:58;;;;;;;3.53;1.30;;;16.50;84.00;;;;;;5012836;28;20468;-69
2021/10/22 12:32:33;;;;;;;4.50;1.87;;;16.30;84.10;;;;;;5012503;28;20461;-69
2021/10/22 12:35:00;;;;;;;3.23;1.77;;;16.30;88.10;;;;;;5012891;28;20483;-69
2021/10/22 12:37:36;;;;;;;6.40;1.73;;;16.30;87.50;;;;;;5012571;28;20461;-69
2021/10/22 12:40:14;;;;;;;2.97;1.40;;;16.30;86.50;;;;;;5012890;28;20489;-69
2021/10/22 12:42:41;;;;;;;5.27;1.73;;;16.30;87.60;;;;;;5012744;28;20465;-69
2021/10/22 12:45:18;;;;;;;9.00;1.90;;;16.40;89.80;;;;;;5012760;28;20498;-69
2021/10/22 12:47:46;;;;;;;3.77;1.83;;;16.50;89.50;;;;;;5012198;28;20461;-69
2021/10/22 12:50:14;;;;;;;2.10;1.60;;;16.40;89.90;;;;;;5012036;28;20453;-69
2021/10/22 12:52:55;;;;;;;4.03;1.67;;;16.20;89.30;;;;;;5012503;28;20465;-69
2021/10/22 12:55:23;;;;;;;4.30;1.40;;;16.10;90.10;;;;;;5015584;28;20484;-70
2021/10/22 12:57:50;;;;;;;3.93;1.70;;;16.10;88.50;;;;;;5014503;28;20473;-69
2021/10/22 13:00:26;;;;;;;3.43;1.30;;;15.90;88.10;;;;;;5014428;28;20491;-69
2021/10/22 13:02:53;;;;;;;3.83;1.57;;;16.00;88.90;;;;;;5013990;28;20461;-69
2021/10/22 13:05:22;;;;;;;4.87;1.80;;;15.90;88.00;;;;;;5013732;28;20497;-69
2021/10/22 13:08:33;;;;;;;2.73;1.60;;;15.70;90.00;;;;;;5013095;28;20468;-69